createdAt,value
2023-05-10T00:03:15.005Z,4.30
2023-05-10T00:13:26.150Z,4.07
2023-05-10T00:18:34.154Z,4.15
2023-05-10T00:23:39.526Z,4.35
2023-05-10T00:28:47.508Z,4.78
2023-05-10T00:38:59.993Z,3.00
2023-05-10T00:44:05.490Z,4.22
2023-05-10T00:49:14.057Z,4.88
2023-05-10T00:54:26.619Z,5.32
2023-05-10T00:59:37.130Z,5.32
2023-05-10T01:04:45.641Z,5.10
2023-05-10T01:09:51.057Z,4.20
2023-05-10T01:14:59.391Z,4.47
2023-05-10T01:20:09.232Z,4.95
2023-05-10T01:25:55.815Z,5.53
2023-05-10T01:31:32.830Z,6.47
2023-05-10T01:36:46.086Z,6.20
2023-05-10T01:41:55.709Z,7.00
2023-05-10T01:47:09.629Z,6.00
2023-05-10T01:52:21.547Z,6.28
2023-05-10T01:57:34.704Z,5.80
2023-05-10T02:02:41.773Z,5.47
2023-05-10T02:07:49.870Z,6.00
2023-05-10T02:18:01.125Z,5.28
2023-05-10T02:23:09.912Z,5.13
2023-05-10T02:28:20.256Z,5.68
2023-05-10T02:33:26.186Z,6.03
2023-05-10T02:38:35.204Z,5.45
2023-05-10T02:43:42.118Z,5.88
2023-05-10T02:48:47.417Z,4.95
2023-05-10T02:53:57.491Z,5.35
2023-05-10T02:59:02.718Z,5.75
2023-05-10T03:04:11.048Z,4.90
2023-05-10T03:09:19.343Z,4.82
2023-05-10T03:14:37.473Z,6.18
2023-05-10T03:19:48.157Z,5.68
2023-05-10T03:25:01.490Z,4.97
2023-05-10T03:30:08.091Z,5.32
2023-05-10T03:35:13.694Z,5.60
2023-05-10T03:40:21.553Z,5.22
2023-05-10T03:45:26.716Z,5.35
2023-05-10T03:50:32.059Z,4.85
2023-05-10T03:55:39.928Z,4.65
2023-05-10T04:00:46.561Z,5.50
2023-05-10T04:05:51.728Z,5.38
2023-05-10T04:11:01.171Z,5.28
2023-05-10T04:16:08.074Z,4.50
2023-05-10T04:21:17.199Z,4.60
2023-05-10T04:26:27.829Z,3.70
2023-05-10T04:31:37.554Z,4.68
2023-05-10T04:36:42.859Z,4.05
2023-05-10T04:41:50.821Z,4.32
2023-05-10T04:52:02.583Z,4.35
2023-05-10T04:57:10.633Z,4.60
2023-05-10T05:02:16.555Z,4.20
2023-05-10T05:07:21.845Z,3.90
2023-05-10T05:12:29.720Z,4.30
2023-05-10T05:17:35.472Z,4.25
2023-05-10T05:22:40.721Z,4.80
2023-05-10T05:27:48.687Z,4.38
2023-05-10T05:32:53.996Z,5.03
2023-05-10T05:37:59.322Z,4.53
2023-05-10T05:43:07.525Z,4.47
2023-05-10T05:48:13.067Z,4.60
2023-05-10T05:53:18.247Z,3.83
2023-05-10T05:58:26.622Z,4.68
2023-05-10T06:03:31.993Z,3.95
2023-05-10T06:08:37.368Z,4.50
2023-05-10T06:13:45.595Z,4.32
2023-05-10T06:18:50.973Z,3.90
2023-05-10T06:23:56.112Z,3.72
2023-05-10T06:29:05.620Z,3.47
2023-05-10T06:34:11.229Z,2.53
2023-05-10T06:39:17.106Z,2.95
2023-05-10T06:44:25.224Z,3.33
2023-05-10T06:49:31.331Z,3.28
2023-05-10T06:54:37.132Z,2.53
2023-05-10T06:59:46.113Z,3.05
2023-05-10T07:04:54.130Z,2.97
2023-05-10T07:10:01.708Z,2.60
2023-05-10T07:15:12.462Z,2.50
2023-05-10T07:20:18.436Z,2.75
2023-05-10T07:25:24.506Z,3.28
2023-05-10T07:30:34.608Z,3.22
2023-05-10T07:35:40.521Z,2.42
2023-05-10T07:40:46.483Z,2.90
2023-05-10T07:45:56.440Z,2.70
2023-05-10T07:51:02.446Z,3.17
2023-05-10T07:56:26.953Z,3.97
2023-05-10T08:01:36.534Z,3.15
2023-05-10T08:06:42.517Z,2.75
2023-05-10T08:11:49.818Z,2.33
2023-05-10T08:16:58.276Z,2.17
2023-05-10T08:22:04.225Z,4.28
2023-05-10T08:27:10.230Z,2.40
2023-05-10T08:32:18.758Z,1.70
2023-05-10T08:37:24.613Z,1.60
2023-05-10T08:42:33.952Z,1.98
2023-05-10T08:47:42.970Z,1.98
2023-05-10T08:52:50.571Z,2.17
2023-05-10T08:57:56.277Z,3.15
2023-05-10T09:03:06.111Z,1.95
2023-05-10T09:08:14.508Z,2.25
2023-05-10T09:13:21.803Z,1.88
2023-05-10T09:18:30.931Z,1.13
2023-05-10T09:23:36.950Z,2.28
2023-05-10T09:28:56.195Z,2.15
2023-05-10T09:34:05.165Z,1.88
2023-05-10T09:39:11.415Z,1.90
2023-05-10T09:44:18.073Z,1.55
2023-05-10T09:49:26.936Z,2.00
2023-05-10T09:54:32.853Z,2.05
2023-05-10T09:59:39.233Z,2.13
2023-05-10T10:04:47.592Z,1.70
2023-05-10T10:09:54.150Z,1.75
2023-05-10T10:14:59.833Z,0.95
2023-05-10T10:20:11.150Z,2.08
2023-05-10T10:25:23.136Z,1.60
2023-05-10T10:30:33.490Z,1.52
2023-05-10T10:35:41.556Z,1.98
2023-05-10T10:40:47.518Z,3.08
2023-05-10T10:46:17.226Z,2.25
2023-05-10T10:51:25.469Z,1.58
2023-05-10T10:56:31.111Z,1.77
2023-05-10T11:01:37.781Z,2.05
2023-05-10T11:06:47.174Z,1.83
2023-05-10T11:11:56.723Z,1.45
2023-05-10T11:17:01.977Z,1.50
2023-05-10T11:22:20.738Z,2.10
2023-05-10T11:27:26.103Z,1.10
2023-05-10T11:32:31.889Z,2.20
2023-05-10T11:37:42.592Z,0.93
2023-05-10T11:42:48.311Z,2.22
2023-05-10T11:47:54.515Z,2.65
2023-05-10T11:53:03.332Z,1.55
2023-05-10T11:58:09.475Z,2.92
2023-05-10T12:03:16.070Z,1.42
2023-05-10T12:08:25.764Z,1.67
2023-05-10T12:13:31.821Z,1.98
2023-05-10T12:18:37.884Z,2.10
2023-05-10T12:23:46.511Z,1.83
2023-05-10T12:28:51.610Z,1.90
2023-05-10T12:33:56.912Z,1.67
2023-05-10T12:39:09.697Z,1.60
2023-05-10T12:44:16.119Z,1.77
2023-05-10T12:49:21.760Z,1.95
2023-05-10T12:54:29.897Z,2.67
2023-05-10T12:59:36.746Z,2.13
2023-05-10T13:04:44.259Z,2.20
2023-05-10T13:09:52.776Z,3.00
2023-05-10T13:14:59.407Z,1.83
2023-05-10T13:20:05.479Z,2.45
2023-05-10T13:25:14.150Z,1.50
2023-05-10T13:30:20.033Z,2.47
2023-05-10T13:35:26.268Z,1.80
2023-05-10T13:40:34.745Z,1.92
2023-05-10T13:45:40.903Z,2.00
2023-05-10T13:50:46.962Z,1.95
2023-05-10T13:55:55.448Z,1.88
2023-05-10T14:01:02.015Z,1.80
2023-05-10T14:06:09.357Z,1.45
2023-05-10T14:11:19.594Z,1.30
2023-05-10T14:16:25.503Z,2.10
2023-05-10T14:21:31.727Z,1.38
2023-05-10T14:26:40.198Z,2.55
2023-05-10T14:31:46.864Z,1.73
2023-05-10T14:36:52.791Z,1.60
2023-05-10T14:42:01.823Z,1.30
2023-05-10T14:47:08.452Z,1.60
2023-05-10T14:57:22.784Z,1.65
2023-05-10T15:02:32.096Z,1.38
2023-05-10T15:07:39.015Z,2.03
2023-05-10T15:12:48.413Z,1.42
2023-05-10T15:17:54.351Z,1.80
2023-05-10T15:23:00.668Z,2.30
2023-05-10T15:28:09.421Z,2.15
2023-05-10T15:33:15.880Z,2.10
2023-05-10T15:38:22.057Z,1.75
2023-05-10T15:43:34.078Z,2.20
2023-05-10T15:48:41.270Z,1.48
2023-05-10T15:59:12.114Z,1.80
2023-05-10T16:04:18.013Z,1.98
2023-05-10T16:09:27.252Z,2.08
2023-05-10T16:14:37.208Z,1.60
2023-05-10T16:19:43.376Z,2.03
2023-05-10T16:24:51.316Z,1.83
2023-05-10T16:29:59.786Z,2.05
2023-05-10T16:35:05.932Z,3.25
2023-05-10T16:40:13.419Z,2.20
2023-05-10T16:45:22.403Z,2.03
2023-05-10T16:50:29.470Z,0.93
2023-05-10T16:55:39.447Z,1.88
2023-05-10T17:00:47.960Z,1.75
2023-05-10T17:05:53.856Z,1.30
2023-05-10T17:11:06.564Z,1.63
2023-05-10T17:16:15.857Z,1.88
2023-05-10T17:21:23.547Z,2.03
2023-05-10T17:26:36.573Z,1.75
2023-05-10T17:31:45.734Z,1.90
2023-05-10T17:36:51.775Z,1.88
2023-05-10T17:41:58.094Z,2.00
2023-05-10T17:47:07.465Z,1.83
2023-05-10T17:52:13.596Z,1.80
2023-05-10T17:57:19.528Z,1.65
2023-05-10T18:02:28.160Z,1.75
2023-05-10T18:07:35.757Z,1.83
2023-05-10T18:12:44.079Z,1.98
2023-05-10T18:17:54.034Z,2.28
2023-05-10T18:23:01.847Z,2.25
2023-05-10T18:28:11.821Z,1.75
2023-05-10T18:33:21.759Z,1.80
2023-05-10T18:38:28.841Z,1.40
2023-05-10T18:43:35.901Z,1.63
2023-05-10T18:48:44.927Z,2.53
2023-05-10T18:53:51.140Z,1.13
2023-05-10T18:58:57.826Z,1.30
2023-05-10T19:04:06.557Z,2.08
2023-05-10T19:09:13.344Z,2.28
2023-05-10T19:14:27.997Z,1.88
2023-05-10T19:19:39.008Z,1.50
2023-05-10T19:24:50.221Z,2.00
2023-05-10T19:29:58.190Z,2.58
2023-05-10T19:35:07.118Z,2.47
2023-05-10T19:40:14.180Z,2.40
2023-05-10T19:45:20.593Z,3.22
2023-05-10T19:50:30.087Z,3.13
2023-05-10T19:55:41.082Z,1.88
2023-05-10T20:00:53.073Z,1.85
2023-05-10T20:06:02.032Z,2.92
2023-05-10T20:11:12.447Z,2.38
2023-05-10T20:16:19.081Z,2.03
2023-05-10T20:21:28.071Z,2.05
2023-05-10T20:26:34.090Z,2.38
2023-05-10T20:31:41.102Z,2.45
2023-05-10T20:36:50.124Z,1.98
2023-05-10T20:41:56.310Z,2.53
2023-05-10T20:47:02.237Z,2.35
2023-05-10T20:52:11.047Z,2.17
2023-05-10T20:57:16.994Z,2.72
2023-05-10T21:02:23.154Z,2.28
2023-05-10T21:07:34.216Z,2.03
2023-05-10T21:12:48.304Z,2.45
2023-05-10T21:17:55.105Z,2.15
2023-05-10T21:23:09.432Z,2.15
2023-05-10T21:28:17.444Z,2.17
2023-05-10T21:33:25.508Z,2.42
2023-05-10T21:38:35.241Z,2.15
2023-05-10T21:43:41.129Z,2.92
2023-05-10T21:48:47.117Z,2.80
2023-05-10T21:53:55.764Z,2.25
2023-05-10T21:59:02.148Z,2.35
2023-05-10T22:04:08.243Z,2.35
2023-05-10T22:09:16.809Z,2.13
2023-05-10T22:14:27.180Z,2.65
2023-05-10T22:19:32.659Z,2.75
2023-05-10T22:24:40.568Z,2.05
2023-05-10T22:34:52.802Z,0.90
2023-05-10T22:40:00.993Z,2.35
2023-05-10T22:45:06.588Z,2.67
2023-05-10T22:50:13.654Z,3.05
2023-05-10T22:55:21.367Z,3.20
2023-05-10T23:00:26.716Z,2.28
2023-05-10T23:05:34.636Z,2.60
2023-05-10T23:15:47.141Z,2.50
2023-05-10T23:20:52.492Z,2.63
2023-05-10T23:26:00.760Z,1.98
2023-05-10T23:31:05.933Z,2.65
2023-05-10T23:36:11.574Z,2.28
2023-05-10T23:41:19.255Z,3.13
2023-05-10T23:46:24.435Z,2.78
2023-05-10T23:51:29.653Z,2.53
2023-05-10T23:56:37.812Z,2.53
